Time,TemperatureF,DewpointF,PressureIn,WindDirection,WindDirectionDegrees,WindSpeedMPH,WindSpeedGustMPH,Humidity,HourlyPrecipIn,Conditions,Clouds,dailyrainin,SolarRadiationWatts/m^2,SoftwareType,DateUTC
2013-03-17 00:22:00,46.0,46.0,-100.00,ESE,111,0.0,5.0,99,0.00,,,0.00,0.000000,,2013-03-17 07:22:00,
2013-03-17 00:32:00,46.0,46.0,-100.00,ESE,111,0.0,5.0,99,0.00,,,0.00,0.000000,,2013-03-17 07:32:00,
2013-03-17 00:42:00,46.0,46.0,-100.00,ESE,111,0.0,5.0,99,0.00,,,0.00,0.000000,,2013-03-17 07:42:00,
2013-03-17 00:52:00,46.0,46.0,-100.00,ESE,111,0.0,5.0,99,0.00,,,0.00,0.000000,,2013-03-17 07:52:00,
2013-03-17 01:22:00,45.0,45.0,-100.00,ESE,119,1.0,5.0,99,0.00,,,0.00,0.000000,,2013-03-17 08:22:00,
2013-03-17 01:32:00,45.0,45.0,-100.00,ESE,119,1.0,5.0,99,0.00,,,0.00,0.000000,,2013-03-17 08:32:00,
2013-03-17 01:42:00,45.0,45.0,-100.00,ESE,119,1.0,5.0,99,0.00,,,0.00,0.000000,,2013-03-17 08:42:00,
2013-03-17 01:52:00,45.0,45.0,-100.00,ESE,119,1.0,5.0,99,0.00,,,0.00,0.000000,,2013-03-17 08:52:00,
2013-03-17 02:22:00,44.0,44.0,-100.00,SE,127,2.0,5.0,99,0.00,,,0.00,0.000000,,2013-03-17 09:22:00,
2013-03-17 02:32:00,44.0,44.0,-100.00,SE,127,2.0,5.0,99,0.00,,,0.00,0.000000,,2013-03-17 09:32:00,
2013-03-17 02:42:00,44.0,44.0,-100.00,SE,127,2.0,5.0,99,0.00,,,0.00,0.000000,,2013-03-17 09:42:00,
2013-03-17 02:52:00,44.0,44.0,-100.00,SE,127,2.0,5.0,99,0.00,,,0.00,0.000000,,2013-03-17 09:52:00,
2013-03-17 03:23:00,45.0,43.0,-100.00,ESE,118,0.0,5.0,92,0.00,,,0.00,0.000000,,2013-03-17 10:23:00,
2013-03-17 03:33:00,45.0,43.0,-100.00,ESE,118,0.0,5.0,92,0.00,,,0.00,0.000000,,2013-03-17 10:33:00,
2013-03-17 03:42:00,45.0,43.0,-100.00,ESE,118,0.0,5.0,92,0.00,,,0.00,0.000000,,2013-03-17 10:42:00,
2013-03-17 03:52:00,45.0,43.0,-100.00,ESE,118,0.0,5.0,92,0.00,,,0.00,0.000000,,2013-03-17 10:52:00,
2013-03-17 04:22:00,42.0,41.0,-100.00,ESE,122,0.0,5.0,98,0.00,,,0.00,0.000000,,2013-03-17 11:22:00,
2013-03-17 04:32:00,42.0,41.0,-100.00,ESE,122,0.0,5.0,98,0.00,,,0.00,0.000000,,2013-03-17 11:32:00,
2013-03-17 04:42:00,42.0,41.0,-100.00,ESE,122,0.0,5.0,98,0.00,,,0.00,0.000000,,2013-03-17 11:42:00,
2013-03-17 04:51:00,42.0,41.0,-100.00,ESE,122,0.0,5.0,98,0.00,,,0.00,0.000000,,2013-03-17 11:51:00,
2013-03-17 05:22:00,42.0,42.0,-100.00,ESE,118,0.0,7.0,99,0.00,,,0.00,0.000000,,2013-03-17 12:22:00,
2013-03-17 05:32:00,42.0,42.0,-100.00,ESE,118,0.0,7.0,99,0.00,,,0.00,0.000000,,2013-03-17 12:32:00,
2013-03-17 05:42:00,42.0,42.0,-100.00,ESE,118,0.0,7.0,99,0.00,,,0.00,0.000000,,2013-03-17 12:42:00,
2013-03-17 05:51:00,42.0,42.0,-100.00,ESE,118,0.0,7.0,99,0.00,,,0.00,0.000000,,2013-03-17 12:51:00,
2013-03-17 06:22:00,43.0,40.0,-100.00,ESE,115,0.0,6.0,90,0.00,,,0.00,0.000000,,2013-03-17 13:22:00,
2013-03-17 06:32:00,43.0,40.0,-100.00,ESE,115,0.0,6.0,90,0.00,,,0.00,0.000000,,2013-03-17 13:32:00,
2013-03-17 06:42:00,43.0,40.0,-100.00,ESE,115,0.0,6.0,90,0.00,,,0.00,0.000000,,2013-03-17 13:42:00,
2013-03-17 06:52:00,43.0,40.0,-100.00,ESE,115,0.0,6.0,90,0.00,,,0.00,0.000000,,2013-03-17 13:52:00,
2013-03-17 07:22:00,41.0,41.0,-100.00,SE,126,1.0,5.0,99,0.00,,,0.00,0.000000,,2013-03-17 14:22:00,
2013-03-17 07:32:00,41.0,41.0,-100.00,SE,126,1.0,5.0,99,0.00,,,0.00,0.000000,,2013-03-17 14:32:00,
2013-03-17 07:42:00,41.0,41.0,-100.00,SE,126,1.0,5.0,99,0.00,,,0.00,0.000000,,2013-03-17 14:42:00,
2013-03-17 07:52:00,41.0,41.0,-100.00,SE,126,1.0,5.0,99,0.00,,,0.00,0.000000,,2013-03-17 14:52:00,
2013-03-17 08:23:00,41.0,41.0,-100.00,ESE,117,0.0,5.0,99,0.00,,,0.00,16.000000,,2013-03-17 15:23:00,
2013-03-17 08:33:00,41.0,41.0,-100.00,ESE,117,0.0,5.0,99,0.00,,,0.00,16.000000,,2013-03-17 15:33:00,
2013-03-17 08:42:00,41.0,41.0,-100.00,ESE,117,0.0,5.0,99,0.00,,,0.00,16.000000,,2013-03-17 15:42:00,
2013-03-17 08:52:00,41.0,41.0,-100.00,ESE,117,0.0,5.0,99,0.00,,,0.00,16.000000,,2013-03-17 15:52:00,
2013-03-17 09:22:00,56.0,42.0,-100.00,SE,134,0.0,5.0,60,0.00,,,0.00,135.000000,,2013-03-17 16:22:00,
2013-03-17 09:33:00,56.0,42.0,-100.00,SE,134,0.0,5.0,60,0.00,,,0.00,135.000000,,2013-03-17 16:33:00,
2013-03-17 09:42:00,56.0,42.0,-100.00,SE,134,0.0,5.0,60,0.00,,,0.00,135.000000,,2013-03-17 16:42:00,
2013-03-17 09:52:00,56.0,42.0,-100.00,SE,134,0.0,5.0,60,0.00,,,0.00,135.000000,,2013-03-17 16:52:00,
2013-03-17 10:22:00,59.0,48.0,-100.00,West,266,1.0,6.0,66,0.00,,,-99.99,148.000000,,2013-03-17 17:22:00,
2013-03-17 10:33:00,59.0,48.0,-100.00,West,266,1.0,6.0,66,0.00,,,-99.99,148.000000,,2013-03-17 17:33:00,
2013-03-17 10:42:00,59.0,48.0,-100.00,West,266,1.0,6.0,66,0.00,,,-99.99,148.000000,,2013-03-17 17:42:00,
2013-03-17 10:52:00,59.0,48.0,-100.00,West,266,1.0,6.0,66,0.00,,,-99.99,148.000000,,2013-03-17 17:52:00,
2013-03-17 11:22:00,59.0,47.0,-100.00,NW,314,3.0,6.0,64,0.00,,,0.00,456.000000,,2013-03-17 18:22:00,
2013-03-17 11:32:00,59.0,47.0,-100.00,NW,314,3.0,6.0,64,0.00,,,0.00,456.000000,,2013-03-17 18:32:00,
2013-03-17 11:42:00,59.0,47.0,-100.00,NW,314,3.0,6.0,64,0.00,,,0.00,456.000000,,2013-03-17 18:42:00,
2013-03-17 11:52:00,59.0,47.0,-100.00,NW,314,3.0,6.0,64,0.00,,,0.00,456.000000,,2013-03-17 18:52:00,
2013-03-17 12:22:00,59.0,49.0,-100.00,WNW,284,3.0,12.0,69,0.00,,,0.00,880.000000,,2013-03-17 19:22:00,
2013-03-17 12:32:00,59.0,49.0,-100.00,WNW,284,3.0,12.0,69,0.00,,,0.00,880.000000,,2013-03-17 19:32:00,
2013-03-17 12:41:00,59.0,49.0,-100.00,WNW,284,3.0,12.0,69,0.00,,,0.00,880.000000,,2013-03-17 19:41:00,
2013-03-17 12:53:00,59.0,49.0,-100.00,WNW,284,3.0,12.0,69,0.00,,,0.00,880.000000,,2013-03-17 19:53:00,
2013-03-17 13:22:00,61.0,49.0,-100.00,WNW,288,4.0,10.0,65,0.00,,,0.00,986.000000,,2013-03-17 20:22:00,
2013-03-17 13:32:00,61.0,49.0,-100.00,WNW,288,4.0,10.0,65,0.00,,,0.00,986.000000,,2013-03-17 20:32:00,
2013-03-17 13:42:00,61.0,49.0,-100.00,WNW,288,4.0,10.0,65,0.00,,,0.00,986.000000,,2013-03-17 20:42:00,
2013-03-17 13:52:00,61.0,49.0,-100.00,WNW,288,4.0,10.0,65,0.00,,,0.00,986.000000,,2013-03-17 20:52:00,
2013-03-17 14:22:00,65.0,51.0,-100.00,WNW,296,2.0,10.0,61,0.00,,,0.00,996.000000,,2013-03-17 21:22:00,
2013-03-17 14:33:00,65.0,51.0,-100.00,WNW,296,2.0,10.0,61,0.00,,,0.00,996.000000,,2013-03-17 21:33:00,
2013-03-17 14:42:00,65.0,51.0,-100.00,WNW,296,2.0,10.0,61,0.00,,,0.00,996.000000,,2013-03-17 21:42:00,
2013-03-17 14:52:00,65.0,51.0,-100.00,WNW,296,2.0,10.0,61,0.00,,,0.00,996.000000,,2013-03-17 21:52:00,
2013-03-17 15:23:00,62.0,48.0,-100.00,West,268,6.0,10.0,60,0.00,,,0.00,931.000000,,2013-03-17 22:23:00,
2013-03-17 15:33:00,62.0,48.0,-100.00,West,268,6.0,10.0,60,0.00,,,0.00,931.000000,,2013-03-17 22:33:00,
2013-03-17 15:42:00,62.0,48.0,-100.00,West,268,6.0,10.0,60,0.00,,,0.00,931.000000,,2013-03-17 22:42:00,
2013-03-17 15:52:00,62.0,48.0,-100.00,West,268,6.0,10.0,60,0.00,,,0.00,931.000000,,2013-03-17 22:52:00,
2013-03-17 16:22:00,62.0,47.0,-100.00,NW,308,4.0,12.0,57,0.00,,,0.00,794.000000,,2013-03-17 23:22:00,
2013-03-17 16:32:00,62.0,47.0,-100.00,NW,308,4.0,12.0,57,0.00,,,0.00,794.000000,,2013-03-17 23:32:00,
2013-03-17 16:42:00,62.0,47.0,-100.00,NW,308,4.0,12.0,57,0.00,,,0.00,794.000000,,2013-03-17 23:42:00,
2013-03-17 16:52:00,62.0,47.0,-100.00,NW,308,4.0,12.0,57,0.00,,,0.00,794.000000,,2013-03-17 23:52:00,
2013-03-17 17:22:00,62.0,45.0,-100.00,WNW,285,4.0,11.0,53,0.00,,,0.00,605.000000,,2013-03-18 00:22:00,
2013-03-17 17:32:00,62.0,45.0,-100.00,WNW,285,4.0,11.0,53,0.00,,,0.00,605.000000,,2013-03-18 00:32:00,
2013-03-17 17:42:00,62.0,45.0,-100.00,WNW,285,4.0,11.0,53,0.00,,,0.00,605.000000,,2013-03-18 00:42:00,
2013-03-17 17:52:00,62.0,45.0,-100.00,WNW,285,4.0,11.0,53,0.00,,,0.00,605.000000,,2013-03-18 00:52:00,
2013-03-17 18:22:00,60.0,43.0,-100.00,WNW,293,3.0,10.0,53,0.00,,,0.00,372.000000,,2013-03-18 01:22:00,
2013-03-17 18:32:00,60.0,43.0,-100.00,WNW,293,3.0,10.0,53,0.00,,,0.00,372.000000,,2013-03-18 01:32:00,
2013-03-17 18:42:00,60.0,43.0,-100.00,WNW,293,3.0,10.0,53,0.00,,,0.00,372.000000,,2013-03-18 01:42:00,
2013-03-17 18:52:00,60.0,43.0,-100.00,WNW,293,3.0,10.0,53,0.00,,,0.00,372.000000,,2013-03-18 01:52:00,
2013-03-17 19:22:00,54.0,43.0,-100.00,WNW,285,0.0,7.0,65,0.00,,,0.00,94.000000,,2013-03-18 02:22:00,
2013-03-17 19:32:00,54.0,43.0,-100.00,WNW,285,0.0,7.0,65,0.00,,,0.00,94.000000,,2013-03-18 02:32:00,
2013-03-17 19:42:00,54.0,43.0,-100.00,WNW,285,0.0,7.0,65,0.00,,,0.00,94.000000,,2013-03-18 02:42:00,
2013-03-17 19:52:00,54.0,43.0,-100.00,WNW,285,0.0,7.0,65,0.00,,,0.00,94.000000,,2013-03-18 02:52:00,
2013-03-17 20:22:00,48.0,44.0,-100.00,ESE,120,0.0,4.0,86,0.00,,,0.00,0.000000,,2013-03-18 03:22:00,
2013-03-17 20:33:00,48.0,44.0,-100.00,ESE,120,0.0,4.0,86,0.00,,,0.00,0.000000,,2013-03-18 03:33:00,
2013-03-17 20:42:00,48.0,44.0,-100.00,ESE,120,0.0,4.0,86,0.00,,,0.00,0.000000,,2013-03-18 03:42:00,
2013-03-17 20:52:00,48.0,44.0,-100.00,ESE,120,0.0,4.0,86,0.00,,,0.00,0.000000,,2013-03-18 03:52:00,
2013-03-17 21:22:00,44.0,43.0,-100.00,ESE,112,0.0,4.0,96,0.00,,,0.00,0.000000,,2013-03-18 04:22:00,
2013-03-17 21:33:00,44.0,43.0,-100.00,ESE,112,0.0,4.0,96,0.00,,,0.00,0.000000,,2013-03-18 04:33:00,
2013-03-17 21:42:00,44.0,43.0,-100.00,ESE,112,0.0,4.0,96,0.00,,,0.00,0.000000,,2013-03-18 04:42:00,
2013-03-17 21:52:00,44.0,43.0,-100.00,ESE,112,0.0,4.0,96,0.00,,,0.00,0.000000,,2013-03-18 04:52:00,
2013-03-17 22:22:00,43.0,42.0,-100.00,ESE,119,0.0,4.0,96,0.00,,,0.00,0.000000,,2013-03-18 05:22:00,
2013-03-17 22:32:00,43.0,42.0,-100.00,ESE,119,0.0,4.0,96,0.00,,,0.00,0.000000,,2013-03-18 05:32:00,
2013-03-17 22:43:00,43.0,42.0,-100.00,ESE,119,0.0,4.0,96,0.00,,,0.00,0.000000,,2013-03-18 05:43:00,
2013-03-17 22:52:00,43.0,42.0,-100.00,ESE,119,0.0,4.0,96,0.00,,,0.00,0.000000,,2013-03-18 05:52:00,
2013-03-17 23:22:00,45.0,43.0,-100.00,ESE,109,0.0,3.0,91,0.00,,,0.00,0.000000,,2013-03-18 06:22:00,
2013-03-17 23:32:00,45.0,43.0,-100.00,ESE,109,0.0,3.0,91,0.00,,,0.00,0.000000,,2013-03-18 06:32:00,
2013-03-17 23:42:00,45.0,43.0,-100.00,ESE,109,0.0,3.0,91,0.00,,,0.00,0.000000,,2013-03-18 06:42:00,
2013-03-17 23:52:00,45.0,43.0,-100.00,ESE,109,0.0,3.0,91,0.00,,,0.00,0.000000,,2013-03-18 06:52:00,